sensor_id;sensor_type;location;lat;lon;timestamp;pressure;altitude;pressure_sealevel;temperature;humidity
70971;BME280;58632;51.718;19.446;2023-05-14T00:02:12;100184.78;;;8.48;100.00
70971;BME280;58632;51.718;19.446;2023-05-14T00:04:37;100187.39;;;8.46;100.00
70971;BME280;58632;51.718;19.446;2023-05-14T00:07:03;100185.63;;;8.43;100.00
70971;BME280;58632;51.718;19.446;2023-05-14T00:09:28;100189.64;;;8.41;100.00
70971;BME280;58632;51.718;19.446;2023-05-14T00:11:54;100191.25;;;8.37;100.00
70971;BME280;58632;51.718;19.446;2023-05-14T00:14:22;100184.77;;;8.33;100.00
70971;BME280;58632;51.718;19.446;2023-05-14T00:16:48;100182.87;;;8.29;100.00
70971;BME280;58632;51.718;19.446;2023-05-14T00:19:13;100186.09;;;8.25;100.00
70971;BME280;58632;51.718;19.446;2023-05-14T00:21:39;100184.02;;;8.22;100.00
70971;BME280;58632;51.718;19.446;2023-05-14T00:24:04;100182.91;;;8.19;100.00
70971;BME280;58632;51.718;19.446;2023-05-14T00:26:30;100179.70;;;8.15;100.00
70971;BME280;58632;51.718;19.446;2023-05-14T00:28:55;100184.33;;;8.12;100.00
70971;BME280;58632;51.718;19.446;2023-05-14T00:31:21;100184.92;;;8.08;100.00
70971;BME280;58632;51.718;19.446;2023-05-14T00:33:46;100182.54;;;8.04;100.00
70971;BME280;58632;51.718;19.446;2023-05-14T00:36:11;100180.30;;;8.01;100.00
70971;BME280;58632;51.718;19.446;2023-05-14T00:38:39;100178.17;;;7.97;100.00
70971;BME280;58632;51.718;19.446;2023-05-14T00:41:05;100178.71;;;7.94;100.00
70971;BME280;58632;51.718;19.446;2023-05-14T00:43:30;100183.86;;;7.92;100.00
70971;BME280;58632;51.718;19.446;2023-05-14T00:45:57;100181.70;;;7.90;100.00
70971;BME280;58632;51.718;19.446;2023-05-14T00:48:22;100180.23;;;7.87;100.00
70971;BME280;58632;51.718;19.446;2023-05-14T00:50:48;100173.44;;;7.84;100.00
70971;BME280;58632;51.718;19.446;2023-05-14T00:53:14;100176.39;;;7.83;100.00
70971;BME280;58632;51.718;19.446;2023-05-14T00:55:40;100174.86;;;7.81;100.00
70971;BME280;58632;51.718;19.446;2023-05-14T00:58:06;100178.34;;;7.77;100.00
70971;BME280;58632;51.718;19.446;2023-05-14T01:00:33;100180.63;;;7.74;100.00
70971;BME280;58632;51.718;19.446;2023-05-14T01:02:59;100181.33;;;7.70;100.00
70971;BME280;58632;51.718;19.446;2023-05-14T01:05:32;100182.90;;;7.67;100.00
70971;BME280;58632;51.718;19.446;2023-05-14T01:08:08;100185.07;;;7.63;100.00
70971;BME280;58632;51.718;19.446;2023-05-14T01:10:38;100189.21;;;7.63;100.00
70971;BME280;58632;51.718;19.446;2023-05-14T01:13:11;100182.40;;;7.62;100.00
70971;BME280;58632;51.718;19.446;2023-05-14T01:15:38;100180.70;;;7.63;100.00
70971;BME280;58632;51.718;19.446;2023-05-14T01:18:05;100177.89;;;7.66;100.00
70971;BME280;58632;51.718;19.446;2023-05-14T01:20:32;100173.87;;;7.69;100.00
70971;BME280;58632;51.718;19.446;2023-05-14T01:22:57;100169.34;;;7.74;100.00
70971;BME280;58632;51.718;19.446;2023-05-14T01:25:22;100162.80;;;7.77;100.00
70971;BME280;58632;51.718;19.446;2023-05-14T01:30:33;100151.50;;;7.86;100.00
70971;BME280;58632;51.718;19.446;2023-05-14T01:33:01;100147.48;;;7.89;100.00
70971;BME280;58632;51.718;19.446;2023-05-14T01:35:28;100146.84;;;7.91;100.00
70971;BME280;58632;51.718;19.446;2023-05-14T01:38:03;100148.77;;;7.90;100.00
70971;BME280;58632;51.718;19.446;2023-05-14T01:40:31;100147.38;;;7.88;100.00
70971;BME280;58632;51.718;19.446;2023-05-14T01:42:56;100149.34;;;7.84;100.00
70971;BME280;58632;51.718;19.446;2023-05-14T01:45:23;100144.31;;;7.81;100.00
70971;BME280;58632;51.718;19.446;2023-05-14T01:47:48;100137.28;;;7.78;100.00
70971;BME280;58632;51.718;19.446;2023-05-14T01:50:14;100138.13;;;7.75;100.00
70971;BME280;58632;51.718;19.446;2023-05-14T01:52:40;100140.66;;;7.73;100.00
70971;BME280;58632;51.718;19.446;2023-05-14T01:55:05;100146.45;;;7.69;100.00
70971;BME280;58632;51.718;19.446;2023-05-14T01:57:31;100142.54;;;7.63;100.00
70971;BME280;58632;51.718;19.446;2023-05-14T01:59:58;100139.40;;;7.62;100.00
70971;BME280;58632;51.718;19.446;2023-05-14T02:02:24;100136.74;;;7.60;100.00
70971;BME280;58632;51.718;19.446;2023-05-14T02:04:51;100134.71;;;7.59;100.00
70971;BME280;58632;51.718;19.446;2023-05-14T02:07:17;100134.06;;;7.57;100.00
70971;BME280;58632;51.718;19.446;2023-05-14T02:09:42;100135.86;;;7.58;100.00
70971;BME280;58632;51.718;19.446;2023-05-14T02:12:08;100133.70;;;7.56;100.00
70971;BME280;58632;51.718;19.446;2023-05-14T02:14:33;100133.85;;;7.53;100.00
70971;BME280;58632;51.718;19.446;2023-05-14T02:16:59;100130.36;;;7.57;100.00
70971;BME280;58632;51.718;19.446;2023-05-14T02:19:24;100130.45;;;7.63;100.00
70971;BME280;58632;51.718;19.446;2023-05-14T02:21:50;100128.73;;;7.72;100.00
70971;BME280;58632;51.718;19.446;2023-05-14T02:24:15;100126.29;;;7.83;100.00
70971;BME280;58632;51.718;19.446;2023-05-14T02:26:41;100129.91;;;7.90;100.00
70971;BME280;58632;51.718;19.446;2023-05-14T02:29:06;100125.42;;;7.94;100.00
70971;BME280;58632;51.718;19.446;2023-05-14T02:31:32;100118.73;;;7.97;100.00
70971;BME280;58632;51.718;19.446;2023-05-14T02:33:57;100117.87;;;7.99;100.00
70971;BME280;58632;51.718;19.446;2023-05-14T02:36:23;100116.91;;;8.01;100.00
70971;BME280;58632;51.718;19.446;2023-05-14T02:38:48;100116.91;;;8.01;100.00
70971;BME280;58632;51.718;19.446;2023-05-14T02:41:14;100118.64;;;7.98;100.00
70971;BME280;58632;51.718;19.446;2023-05-14T02:43:39;100118.63;;;7.96;100.00
70971;BME280;58632;51.718;19.446;2023-05-14T02:46:05;100113.00;;;7.93;100.00
70971;BME280;58632;51.718;19.446;2023-05-14T02:48:30;100112.07;;;7.90;100.00
70971;BME280;58632;51.718;19.446;2023-05-14T02:50:58;100112.63;;;7.92;100.00
70971;BME280;58632;51.718;19.446;2023-05-14T02:53:24;100110.70;;;7.94;100.00
70971;BME280;58632;51.718;19.446;2023-05-14T02:55:49;100112.33;;;7.98;100.00
70971;BME280;58632;51.718;19.446;2023-05-14T02:58:15;100111.66;;;8.06;100.00
70971;BME280;58632;51.718;19.446;2023-05-14T03:00:40;100109.48;;;8.17;100.00
70971;BME280;58632;51.718;19.446;2023-05-14T03:03:06;100101.61;;;8.27;100.00
70971;BME280;58632;51.718;19.446;2023-05-14T03:05:31;100105.20;;;8.37;100.00
70971;BME280;58632;51.718;19.446;2023-05-14T03:07:56;100102.54;;;8.47;100.00
70971;BME280;58632;51.718;19.446;2023-05-14T03:10:24;100106.20;;;8.57;100.00
70971;BME280;58632;51.718;19.446;2023-05-14T03:12:50;100110.44;;;8.67;100.00
70971;BME280;58632;51.718;19.446;2023-05-14T03:15:15;100108.34;;;8.77;100.00
70971;BME280;58632;51.718;19.446;2023-05-14T03:17:41;100109.39;;;8.88;100.00
70971;BME280;58632;51.718;19.446;2023-05-14T03:20:06;100111.75;;;8.98;100.00
70971;BME280;58632;51.718;19.446;2023-05-14T03:22:32;100110.52;;;9.08;100.00
70971;BME280;58632;51.718;19.446;2023-05-14T03:24:57;100107.83;;;9.17;100.00
70971;BME280;58632;51.718;19.446;2023-05-14T03:27:23;100106.75;;;9.31;100.00
70971;BME280;58632;51.718;19.446;2023-05-14T03:29:48;100105.34;;;9.50;100.00
70971;BME280;58632;51.718;19.446;2023-05-14T03:32:14;100102.21;;;9.67;100.00
70971;BME280;58632;51.718;19.446;2023-05-14T03:34:39;100104.91;;;9.85;100.00
70971;BME280;58632;51.718;19.446;2023-05-14T03:37:05;100098.30;;;10.02;100.00
70971;BME280;58632;51.718;19.446;2023-05-14T03:39:30;100098.20;;;10.12;100.00
70971;BME280;58632;51.718;19.446;2023-05-14T03:41:58;100099.19;;;10.23;100.00
70971;BME280;58632;51.718;19.446;2023-05-14T03:44:24;100096.71;;;10.36;100.00
70971;BME280;58632;51.718;19.446;2023-05-14T03:46:49;100099.69;;;10.50;100.00
70971;BME280;58632;51.718;19.446;2023-05-14T03:49:15;100102.16;;;10.60;100.00
70971;BME280;58632;51.718;19.446;2023-05-14T03:51:40;100103.55;;;10.72;100.00
70971;BME280;58632;51.718;19.446;2023-05-14T03:54:05;100099.60;;;10.82;100.00
70971;BME280;58632;51.718;19.446;2023-05-14T03:56:31;100101.08;;;10.90;100.00
70971;BME280;58632;51.718;19.446;2023-05-14T03:58:56;100098.45;;;10.93;100.00
70971;BME280;58632;51.718;19.446;2023-05-14T04:01:22;100095.34;;;10.99;100.00
70971;BME280;58632;51.718;19.446;2023-05-14T04:03:47;100093.23;;;11.05;100.00
70971;BME280;58632;51.718;19.446;2023-05-14T04:06:12;100094.40;;;11.10;100.00
70971;BME280;58632;51.718;19.446;2023-05-14T04:08:38;100093.27;;;11.17;100.00
70971;BME280;58632;51.718;19.446;2023-05-14T04:11:03;100090.35;;;11.23;100.00
70971;BME280;58632;51.718;19.446;2023-05-14T04:13:29;100093.56;;;11.28;100.00
70971;BME280;58632;51.718;19.446;2023-05-14T04:15:56;100094.30;;;11.35;100.00
70971;BME280;58632;51.718;19.446;2023-05-14T04:18:21;100095.36;;;11.41;100.00
70971;BME280;58632;51.718;19.446;2023-05-14T04:20:47;100096.30;;;11.50;100.00
70971;BME280;58632;51.718;19.446;2023-05-14T04:23:12;100099.51;;;11.58;100.00
70971;BME280;58632;51.718;19.446;2023-05-14T04:25:38;100094.55;;;11.66;100.00
70971;BME280;58632;51.718;19.446;2023-05-14T04:28:06;100093.25;;;11.74;100.00
70971;BME280;58632;51.718;19.446;2023-05-14T04:30:32;100089.65;;;11.82;100.00
70971;BME280;58632;51.718;19.446;2023-05-14T04:32:57;100090.52;;;11.91;100.00
70971;BME280;58632;51.718;19.446;2023-05-14T04:35:23;100096.70;;;11.94;100.00
70971;BME280;58632;51.718;19.446;2023-05-14T04:37:49;100090.25;;;11.97;100.00
70971;BME280;58632;51.718;19.446;2023-05-14T04:40:16;100087.86;;;12.01;100.00
70971;BME280;58632;51.718;19.446;2023-05-14T04:42:43;100090.63;;;12.05;100.00
70971;BME280;58632;51.718;19.446;2023-05-14T04:45:08;100092.09;;;12.10;100.00
70971;BME280;58632;51.718;19.446;2023-05-14T04:47:34;100085.11;;;12.15;100.00
70971;BME280;58632;51.718;19.446;2023-05-14T04:50:00;100081.35;;;12.22;100.00
70971;BME280;58632;51.718;19.446;2023-05-14T04:52:25;100079.36;;;12.29;100.00
70971;BME280;58632;51.718;19.446;2023-05-14T04:54:50;100082.65;;;12.35;100.00
70971;BME280;58632;51.718;19.446;2023-05-14T04:57:16;100084.02;;;12.38;100.00
70971;BME280;58632;51.718;19.446;2023-05-14T04:59:41;100087.36;;;12.38;100.00
70971;BME280;58632;51.718;19.446;2023-05-14T05:02:07;100087.65;;;12.41;100.00
70971;BME280;58632;51.718;19.446;2023-05-14T05:04:32;100089.50;;;12.48;100.00
70971;BME280;58632;51.718;19.446;2023-05-14T05:06:58;100087.73;;;12.58;100.00
70971;BME280;58632;51.718;19.446;2023-05-14T05:09:23;100086.25;;;12.67;100.00
70971;BME280;58632;51.718;19.446;2023-05-14T05:11:49;100087.92;;;12.76;100.00
70971;BME280;58632;51.718;19.446;2023-05-14T05:14:14;100084.13;;;12.78;100.00
70971;BME280;58632;51.718;19.446;2023-05-14T05:16:40;100088.40;;;12.80;100.00
70971;BME280;58632;51.718;19.446;2023-05-14T05:19:05;100084.59;;;12.85;100.00
70971;BME280;58632;51.718;19.446;2023-05-14T05:21:31;100085.30;;;12.92;100.00
70971;BME280;58632;51.718;19.446;2023-05-14T05:23:56;100088.23;;;13.07;100.00
70971;BME280;58632;51.718;19.446;2023-05-14T05:26:23;100083.48;;;13.20;100.00
70971;BME280;58632;51.718;19.446;2023-05-14T05:28:48;100080.62;;;13.32;100.00
70971;BME280;58632;51.718;19.446;2023-05-14T05:31:13;100078.21;;;13.45;100.00
70971;BME280;58632;51.718;19.446;2023-05-14T05:33:39;100079.42;;;13.56;100.00
70971;BME280;58632;51.718;19.446;2023-05-14T05:36:05;100078.01;;;13.68;100.00
70971;BME280;58632;51.718;19.446;2023-05-14T05:38:30;100077.00;;;13.82;100.00
70971;BME280;58632;51.718;19.446;2023-05-14T05:40:56;100072.33;;;13.96;100.00
70971;BME280;58632;51.718;19.446;2023-05-14T05:43:21;100076.60;;;14.12;100.00
70971;BME280;58632;51.718;19.446;2023-05-14T05:45:46;100074.20;;;14.22;100.00
70971;BME280;58632;51.718;19.446;2023-05-14T05:48:12;100069.52;;;14.26;100.00
70971;BME280;58632;51.718;19.446;2023-05-14T05:50:37;100068.48;;;14.32;100.00
70971;BME280;58632;51.718;19.446;2023-05-14T05:53:02;100068.48;;;14.50;100.00
70971;BME280;58632;51.718;19.446;2023-05-14T05:55:28;100066.34;;;14.62;100.00
70971;BME280;58632;51.718;19.446;2023-05-14T05:57:54;100061.80;;;14.78;100.00
70971;BME280;58632;51.718;19.446;2023-05-14T06:00:19;100063.02;;;14.95;100.00
70971;BME280;58632;51.718;19.446;2023-05-14T06:02:45;100065.72;;;15.11;100.00
70971;BME280;58632;51.718;19.446;2023-05-14T06:05:11;100069.89;;;15.16;100.00
70971;BME280;58632;51.718;19.446;2023-05-14T06:07:36;100067.29;;;15.19;99.99
70971;BME280;58632;51.718;19.446;2023-05-14T06:10:02;100072.19;;;15.26;98.18
70971;BME280;58632;51.718;19.446;2023-05-14T06:12:28;100074.42;;;15.35;97.53
70971;BME280;58632;51.718;19.446;2023-05-14T06:14:53;100075.80;;;15.44;97.48
70971;BME280;58632;51.718;19.446;2023-05-14T06:17:20;100073.09;;;15.56;97.28
70971;BME280;58632;51.718;19.446;2023-05-14T06:19:45;100071.98;;;15.74;97.07
70971;BME280;58632;51.718;19.446;2023-05-14T06:22:11;100069.71;;;15.90;95.02
70971;BME280;58632;51.718;19.446;2023-05-14T06:24:36;100064.27;;;16.19;90.83
70971;BME280;58632;51.718;19.446;2023-05-14T06:27:02;100071.94;;;16.52;89.76
70971;BME280;58632;51.718;19.446;2023-05-14T06:29:27;100072.92;;;16.88;89.56
70971;BME280;58632;51.718;19.446;2023-05-14T06:31:53;100067.20;;;17.18;83.37
70971;BME280;58632;51.718;19.446;2023-05-14T06:34:18;100065.61;;;17.43;74.76
70971;BME280;58632;51.718;19.446;2023-05-14T06:36:43;100065.06;;;17.61;73.60
70971;BME280;58632;51.718;19.446;2023-05-14T06:39:09;100058.86;;;17.81;74.24
70971;BME280;58632;51.718;19.446;2023-05-14T06:41:34;100055.27;;;18.11;70.06
70971;BME280;58632;51.718;19.446;2023-05-14T06:44:00;100054.14;;;18.45;65.15
70971;BME280;58632;51.718;19.446;2023-05-14T06:46:25;100053.20;;;18.80;63.07
70971;BME280;58632;51.718;19.446;2023-05-14T06:48:50;100053.21;;;19.21;62.49
70971;BME280;58632;51.718;19.446;2023-05-14T06:51:16;100050.20;;;19.56;55.69
70971;BME280;58632;51.718;19.446;2023-05-14T06:53:41;100050.06;;;19.58;55.66
70971;BME280;58632;51.718;19.446;2023-05-14T06:56:07;100050.39;;;19.79;53.28
70971;BME280;58632;51.718;19.446;2023-05-14T06:58:35;100044.35;;;20.30;55.12
70971;BME280;58632;51.718;19.446;2023-05-14T07:01:00;100038.26;;;20.81;52.75
70971;BME280;58632;51.718;19.446;2023-05-14T07:03:25;100032.27;;;21.24;48.79
70971;BME280;58632;51.718;19.446;2023-05-14T07:05:54;100027.73;;;21.32;45.45
70971;BME280;58632;51.718;19.446;2023-05-14T07:08:19;100024.55;;;21.60;44.92
70971;BME280;58632;51.718;19.446;2023-05-14T07:10:48;100020.39;;;21.95;44.37
70971;BME280;58632;51.718;19.446;2023-05-14T07:13:13;100022.80;;;22.02;42.29
70971;BME280;58632;51.718;19.446;2023-05-14T07:15:38;100023.34;;;22.00;41.10
70971;BME280;58632;51.718;19.446;2023-05-14T07:18:04;100021.90;;;21.99;42.62
70971;BME280;58632;51.718;19.446;2023-05-14T07:20:32;100022.33;;;22.29;42.07
70971;BME280;58632;51.718;19.446;2023-05-14T07:22:58;100023.70;;;22.41;41.16
70971;BME280;58632;51.718;19.446;2023-05-14T07:25:23;100021.00;;;22.53;40.04
70971;BME280;58632;51.718;19.446;2023-05-14T07:27:51;100015.02;;;22.69;40.43
70971;BME280;58632;51.718;19.446;2023-05-14T07:30:17;100012.14;;;22.76;40.55
70971;BME280;58632;51.718;19.446;2023-05-14T07:32:45;100010.47;;;22.98;42.37
70971;BME280;58632;51.718;19.446;2023-05-14T07:35:10;100009.55;;;23.25;39.86
70971;BME280;58632;51.718;19.446;2023-05-14T07:37:36;100008.97;;;23.36;38.57
70971;BME280;58632;51.718;19.446;2023-05-14T07:40:02;100006.40;;;23.42;37.16
70971;BME280;58632;51.718;19.446;2023-05-14T07:42:27;100000.65;;;23.42;38.34
70971;BME280;58632;51.718;19.446;2023-05-14T07:44:53;100005.13;;;23.63;39.29
70971;BME280;58632;51.718;19.446;2023-05-14T07:47:18;100002.91;;;23.82;38.10
70971;BME280;58632;51.718;19.446;2023-05-14T07:49:43;99999.86;;;23.86;36.32
70971;BME280;58632;51.718;19.446;2023-05-14T07:52:09;99999.61;;;23.87;36.39
70971;BME280;58632;51.718;19.446;2023-05-14T07:54:34;99998.81;;;24.00;35.63
70971;BME280;58632;51.718;19.446;2023-05-14T07:57:02;100002.71;;;24.16;34.89
70971;BME280;58632;51.718;19.446;2023-05-14T07:59:28;100002.12;;;24.23;33.41
70971;BME280;58632;51.718;19.446;2023-05-14T08:01:53;100000.27;;;23.99;33.49
70971;BME280;58632;51.718;19.446;2023-05-14T08:04:18;99997.27;;;23.72;33.78
70971;BME280;58632;51.718;19.446;2023-05-14T08:06:44;99998.21;;;23.52;34.15
70971;BME280;58632;51.718;19.446;2023-05-14T08:09:09;100002.95;;;23.42;35.21
70971;BME280;58632;51.718;19.446;2023-05-14T08:11:37;100007.44;;;23.39;34.65
70971;BME280;58632;51.718;19.446;2023-05-14T08:14:03;100004.18;;;23.35;34.09
70971;BME280;58632;51.718;19.446;2023-05-14T08:16:28;100001.23;;;23.32;34.55
70971;BME280;58632;51.718;19.446;2023-05-14T08:18:53;99996.67;;;23.36;34.61
70971;BME280;58632;51.718;19.446;2023-05-14T08:21:19;100002.17;;;23.36;35.46
70971;BME280;58632;51.718;19.446;2023-05-14T08:23:44;99993.61;;;23.21;34.72
70971;BME280;58632;51.718;19.446;2023-05-14T08:26:10;99995.80;;;23.34;34.81
70971;BME280;58632;51.718;19.446;2023-05-14T08:28:35;99994.35;;;23.42;34.20
70971;BME280;58632;51.718;19.446;2023-05-14T08:31:01;99991.17;;;23.35;33.80
70971;BME280;58632;51.718;19.446;2023-05-14T08:33:26;99991.98;;;23.32;33.70
70971;BME280;58632;51.718;19.446;2023-05-14T08:35:52;99986.70;;;23.30;34.17
70971;BME280;58632;51.718;19.446;2023-05-14T08:38:17;99987.48;;;23.38;34.22
70971;BME280;58632;51.718;19.446;2023-05-14T08:40:47;99984.15;;;23.35;33.60
70971;BME280;58632;51.718;19.446;2023-05-14T08:43:15;99971.99;;;23.60;34.63
70971;BME280;58632;51.718;19.446;2023-05-14T08:45:44;99964.77;;;24.00;35.03
70971;BME280;58632;51.718;19.446;2023-05-14T08:48:10;99964.51;;;24.16;34.14
70971;BME280;58632;51.718;19.446;2023-05-14T08:50:37;99960.83;;;24.04;32.50
70971;BME280;58632;51.718;19.446;2023-05-14T08:53:03;99960.95;;;23.98;33.19
70971;BME280;58632;51.718;19.446;2023-05-14T08:55:29;99963.59;;;24.00;34.27
70971;BME280;58632;51.718;19.446;2023-05-14T08:57:55;99964.52;;;24.03;34.76
70971;BME280;58632;51.718;19.446;2023-05-14T09:00:21;99958.02;;;24.06;34.56
70971;BME280;58632;51.718;19.446;2023-05-14T09:02:47;99953.35;;;24.22;35.24
70971;BME280;58632;51.718;19.446;2023-05-14T09:05:12;99957.90;;;24.47;35.69
70971;BME280;58632;51.718;19.446;2023-05-14T09:07:38;99953.02;;;24.50;33.78
70971;BME280;58632;51.718;19.446;2023-05-14T09:10:04;99947.11;;;24.44;34.60
70971;BME280;58632;51.718;19.446;2023-05-14T09:12:30;99947.27;;;24.47;34.56
70971;BME280;58632;51.718;19.446;2023-05-14T09:14:55;99940.64;;;24.34;34.72
70971;BME280;58632;51.718;19.446;2023-05-14T09:17:21;99939.66;;;24.37;36.04
70971;BME280;58632;51.718;19.446;2023-05-14T09:19:49;99940.81;;;24.32;35.80
70971;BME280;58632;51.718;19.446;2023-05-14T09:22:17;99946.31;;;24.12;34.41
70971;BME280;58632;51.718;19.446;2023-05-14T09:24:42;99938.14;;;23.78;33.73
70971;BME280;58632;51.718;19.446;2023-05-14T09:27:09;99933.04;;;23.55;34.55
70971;BME280;58632;51.718;19.446;2023-05-14T09:29:39;99924.93;;;23.66;35.73
70971;BME280;58632;51.718;19.446;2023-05-14T09:32:05;99925.92;;;23.92;35.20
70971;BME280;58632;51.718;19.446;2023-05-14T09:34:32;99924.91;;;23.99;33.42
70971;BME280;58632;51.718;19.446;2023-05-14T09:37:02;99926.56;;;24.15;34.43
70971;BME280;58632;51.718;19.446;2023-05-14T09:39:28;99924.89;;;24.13;34.04
70971;BME280;58632;51.718;19.446;2023-05-14T09:41:53;99913.11;;;24.09;33.66
70971;BME280;58632;51.718;19.446;2023-05-14T09:44:20;99908.99;;;24.02;33.64
70971;BME280;58632;51.718;19.446;2023-05-14T09:46:46;99902.41;;;23.94;33.53
70971;BME280;58632;51.718;19.446;2023-05-14T09:49:11;99903.59;;;23.99;34.38
70971;BME280;58632;51.718;19.446;2023-05-14T09:51:37;99900.41;;;23.83;33.26
70971;BME280;58632;51.718;19.446;2023-05-14T09:54:02;99896.84;;;23.63;33.32
70971;BME280;58632;51.718;19.446;2023-05-14T09:56:31;99894.48;;;23.71;33.68
70971;BME280;58632;51.718;19.446;2023-05-14T09:58:57;99888.80;;;24.06;34.36
70971;BME280;58632;51.718;19.446;2023-05-14T10:01:22;99883.73;;;24.32;34.19
70971;BME280;58632;51.718;19.446;2023-05-14T10:03:48;99880.21;;;24.42;33.55
70971;BME280;58632;51.718;19.446;2023-05-14T10:06:15;99877.57;;;24.42;33.12
70971;BME280;58632;51.718;19.446;2023-05-14T10:08:42;99877.02;;;24.39;33.09
70971;BME280;58632;51.718;19.446;2023-05-14T10:11:17;99875.54;;;24.26;33.65
70971;BME280;58632;51.718;19.446;2023-05-14T10:13:49;99868.60;;;24.26;34.42
70971;BME280;58632;51.718;19.446;2023-05-14T10:16:42;99870.30;;;24.02;33.20
70971;BME280;58632;51.718;19.446;2023-05-14T10:19:10;99866.38;;;23.69;33.36
70971;BME280;58632;51.718;19.446;2023-05-14T10:21:36;99859.37;;;23.65;34.45
70971;BME280;58632;51.718;19.446;2023-05-14T10:24:05;99856.83;;;23.61;34.09
70971;BME280;58632;51.718;19.446;2023-05-14T10:26:31;99855.29;;;23.39;34.20
70971;BME280;58632;51.718;19.446;2023-05-14T10:28:57;99849.86;;;23.09;34.58
70971;BME280;58632;51.718;19.446;2023-05-14T10:31:43;99842.05;;;22.94;35.07
70971;BME280;58632;51.718;19.446;2023-05-14T10:34:29;99841.39;;;22.80;35.12
70971;BME280;58632;51.718;19.446;2023-05-14T10:36:54;99841.79;;;22.82;34.78
70971;BME280;58632;51.718;19.446;2023-05-14T10:39:22;99845.43;;;22.88;34.92
70971;BME280;58632;51.718;19.446;2023-05-14T10:41:48;99839.42;;;22.95;35.28
70971;BME280;58632;51.718;19.446;2023-05-14T10:44:13;99835.20;;;22.95;35.67
70971;BME280;58632;51.718;19.446;2023-05-14T10:46:40;99833.08;;;23.29;35.07
70971;BME280;58632;51.718;19.446;2023-05-14T10:49:08;99824.95;;;23.53;34.85
70971;BME280;58632;51.718;19.446;2023-05-14T10:51:34;99822.80;;;23.76;35.75
70971;BME280;58632;51.718;19.446;2023-05-14T10:54:00;99818.33;;;24.07;35.91
70971;BME280;58632;51.718;19.446;2023-05-14T10:56:26;99812.14;;;24.39;34.87
70971;BME280;58632;51.718;19.446;2023-05-14T10:58:51;99813.68;;;24.74;33.58
70971;BME280;58632;51.718;19.446;2023-05-14T11:01:22;99813.62;;;24.93;33.91
70971;BME280;58632;51.718;19.446;2023-05-14T11:03:48;99813.13;;;25.01;33.72
70971;BME280;58632;51.718;19.446;2023-05-14T11:06:17;99811.59;;;24.82;32.43
70971;BME280;58632;51.718;19.446;2023-05-14T11:08:42;99813.53;;;24.44;32.42
70971;BME280;58632;51.718;19.446;2023-05-14T11:11:08;99807.99;;;24.11;33.25
70971;BME280;58632;51.718;19.446;2023-05-14T11:13:34;99807.35;;;24.10;34.02
70971;BME280;58632;51.718;19.446;2023-05-14T11:16:00;99803.16;;;24.06;33.15
70971;BME280;58632;51.718;19.446;2023-05-14T11:18:27;99800.80;;;23.92;33.49
70971;BME280;58632;51.718;19.446;2023-05-14T11:20:53;99796.52;;;23.79;34.01
70971;BME280;58632;51.718;19.446;2023-05-14T11:23:21;99795.16;;;23.79;34.17
70971;BME280;58632;51.718;19.446;2023-05-14T11:25:47;99796.00;;;23.85;34.30
70971;BME280;58632;51.718;19.446;2023-05-14T11:28:12;99797.52;;;24.11;34.42
70971;BME280;58632;51.718;19.446;2023-05-14T11:30:38;99802.63;;;24.36;34.14
70971;BME280;58632;51.718;19.446;2023-05-14T11:33:03;99790.90;;;24.42;33.07
70971;BME280;58632;51.718;19.446;2023-05-14T11:35:29;99788.23;;;24.54;33.75
70971;BME280;58632;51.718;19.446;2023-05-14T11:37:54;99791.27;;;24.68;33.17
70971;BME280;58632;51.718;19.446;2023-05-14T11:40:20;99786.95;;;24.81;33.04
70971;BME280;58632;51.718;19.446;2023-05-14T11:42:46;99777.38;;;25.11;34.40
70971;BME280;58632;51.718;19.446;2023-05-14T11:45:11;99781.42;;;25.37;32.91
70971;BME280;58632;51.718;19.446;2023-05-14T11:47:37;99783.29;;;25.41;32.16
70971;BME280;58632;51.718;19.446;2023-05-14T11:50:02;99779.34;;;25.37;31.56
70971;BME280;58632;51.718;19.446;2023-05-14T11:52:28;99779.34;;;25.12;31.49
70971;BME280;58632;51.718;19.446;2023-05-14T11:54:54;99775.45;;;24.98;31.29
70971;BME280;58632;51.718;19.446;2023-05-14T11:57:19;99778.27;;;24.90;32.29
70971;BME280;58632;51.718;19.446;2023-05-14T11:59:48;99775.00;;;24.97;32.85
70971;BME280;58632;51.718;19.446;2023-05-14T12:02:14;99768.88;;;25.00;32.48
70971;BME280;58632;51.718;19.446;2023-05-14T12:04:40;99770.34;;;24.86;32.19
70971;BME280;58632;51.718;19.446;2023-05-14T12:07:10;99770.45;;;24.83;32.47
70971;BME280;58632;51.718;19.446;2023-05-14T12:09:39;99771.02;;;24.76;32.22
70971;BME280;58632;51.718;19.446;2023-05-14T12:12:08;99770.77;;;24.64;32.46
70971;BME280;58632;51.718;19.446;2023-05-14T12:14:38;99769.42;;;24.68;32.94
70971;BME280;58632;51.718;19.446;2023-05-14T12:17:10;99771.25;;;24.78;32.90
70971;BME280;58632;51.718;19.446;2023-05-14T12:19:38;99766.55;;;24.75;32.37
70971;BME280;58632;51.718;19.446;2023-05-14T12:22:04;99763.21;;;24.67;32.27
70971;BME280;58632;51.718;19.446;2023-05-14T12:24:33;99757.24;;;24.71;32.65
70971;BME280;58632;51.718;19.446;2023-05-14T12:26:59;99753.00;;;24.91;33.00
70971;BME280;58632;51.718;19.446;2023-05-14T12:29:25;99749.20;;;25.10;32.18
70971;BME280;58632;51.718;19.446;2023-05-14T12:31:51;99748.40;;;24.99;31.67
70971;BME280;58632;51.718;19.446;2023-05-14T12:34:16;99745.32;;;24.71;32.17
70971;BME280;58632;51.718;19.446;2023-05-14T12:36:42;99747.27;;;24.68;32.69
70971;BME280;58632;51.718;19.446;2023-05-14T12:39:08;99740.89;;;24.61;32.74